sensor_id;sensor_type;location;lat;lon;timestamp;P1;durP1;ratioP1;P2;durP2;ratioP2
11596;SDS011;5854;48.072;16.286;2023-05-19T00:01:28;7.82;;;4.70;;
11596;SDS011;5854;48.072;16.286;2023-05-19T00:03:56;9.38;;;4.47;;
11596;SDS011;5854;48.072;16.286;2023-05-19T00:06:27;7.90;;;4.25;;
11596;SDS011;5854;48.072;16.286;2023-05-19T00:08:56;14.77;;;5.38;;
11596;SDS011;5854;48.072;16.286;2023-05-19T00:11:26;6.15;;;3.88;;
11596;SDS011;5854;48.072;16.286;2023-05-19T00:13:54;8.68;;;5.07;;
11596;SDS011;5854;48.072;16.286;2023-05-19T00:16:25;11.43;;;6.30;;
11596;SDS011;5854;48.072;16.286;2023-05-19T00:18:54;13.00;;;6.65;;
11596;SDS011;5854;48.072;16.286;2023-05-19T00:21:22;13.35;;;5.68;;
11596;SDS011;5854;48.072;16.286;2023-05-19T00:23:49;10.73;;;5.35;;
11596;SDS011;5854;48.072;16.286;2023-05-19T00:26:16;15.73;;;5.07;;
11596;SDS011;5854;48.072;16.286;2023-05-19T00:28:43;12.75;;;5.50;;
11596;SDS011;5854;48.072;16.286;2023-05-19T00:31:10;9.75;;;5.07;;
11596;SDS011;5854;48.072;16.286;2023-05-19T00:33:39;12.00;;;5.32;;
11596;SDS011;5854;48.072;16.286;2023-05-19T00:36:06;11.10;;;5.65;;
11596;SDS011;5854;48.072;16.286;2023-05-19T00:38:35;10.60;;;5.78;;
11596;SDS011;5854;48.072;16.286;2023-05-19T00:41:02;8.40;;;6.32;;
11596;SDS011;5854;48.072;16.286;2023-05-19T00:43:31;11.65;;;5.25;;
11596;SDS011;5854;48.072;16.286;2023-05-19T00:45:59;9.82;;;5.57;;
11596;SDS011;5854;48.072;16.286;2023-05-19T00:48:26;13.85;;;6.20;;
11596;SDS011;5854;48.072;16.286;2023-05-19T00:50:55;8.95;;;5.88;;
11596;SDS011;5854;48.072;16.286;2023-05-19T00:53:28;10.45;;;6.78;;
11596;SDS011;5854;48.072;16.286;2023-05-19T00:55:55;11.80;;;6.70;;
11596;SDS011;5854;48.072;16.286;2023-05-19T00:58:23;10.60;;;5.60;;
11596;SDS011;5854;48.072;16.286;2023-05-19T01:00:53;10.50;;;6.13;;
11596;SDS011;5854;48.072;16.286;2023-05-19T01:03:27;11.52;;;5.88;;
11596;SDS011;5854;48.072;16.286;2023-05-19T01:05:57;7.75;;;6.57;;
11596;SDS011;5854;48.072;16.286;2023-05-19T01:08:28;12.02;;;6.60;;
11596;SDS011;5854;48.072;16.286;2023-05-19T01:10:57;11.02;;;6.85;;
11596;SDS011;5854;48.072;16.286;2023-05-19T01:13:24;13.35;;;7.25;;
11596;SDS011;5854;48.072;16.286;2023-05-19T01:15:56;10.85;;;7.32;;
11596;SDS011;5854;48.072;16.286;2023-05-19T01:18:43;8.70;;;7.70;;
11596;SDS011;5854;48.072;16.286;2023-05-19T01:24:46;11.25;;;6.95;;
11596;SDS011;5854;48.072;16.286;2023-05-19T01:27:46;16.00;;;6.80;;
11596;SDS011;5854;48.072;16.286;2023-05-19T01:30:33;12.88;;;6.28;;
11596;SDS011;5854;48.072;16.286;2023-05-19T01:33:05;10.52;;;7.18;;
11596;SDS011;5854;48.072;16.286;2023-05-19T01:35:36;8.68;;;6.78;;
11596;SDS011;5854;48.072;16.286;2023-05-19T01:38:04;11.90;;;6.95;;
11596;SDS011;5854;48.072;16.286;2023-05-19T01:40:34;13.50;;;7.95;;
11596;SDS011;5854;48.072;16.286;2023-05-19T01:43:05;11.40;;;6.82;;
11596;SDS011;5854;48.072;16.286;2023-05-19T01:45:38;10.90;;;7.55;;
11596;SDS011;5854;48.072;16.286;2023-05-19T01:48:06;10.77;;;8.05;;
11596;SDS011;5854;48.072;16.286;2023-05-19T01:50:33;10.20;;;6.65;;
11596;SDS011;5854;48.072;16.286;2023-05-19T01:53:00;9.43;;;7.28;;
11596;SDS011;5854;48.072;16.286;2023-05-19T01:55:27;14.90;;;7.57;;
11596;SDS011;5854;48.072;16.286;2023-05-19T01:57:59;11.25;;;8.20;;
11596;SDS011;5854;48.072;16.286;2023-05-19T02:00:40;12.02;;;7.97;;
11596;SDS011;5854;48.072;16.286;2023-05-19T02:03:31;13.32;;;7.43;;
11596;SDS011;5854;48.072;16.286;2023-05-19T02:06:21;14.55;;;7.95;;
11596;SDS011;5854;48.072;16.286;2023-05-19T02:08:56;13.77;;;7.43;;
11596;SDS011;5854;48.072;16.286;2023-05-19T02:11:30;17.95;;;7.85;;
11596;SDS011;5854;48.072;16.286;2023-05-19T02:14:07;12.27;;;8.07;;
11596;SDS011;5854;48.072;16.286;2023-05-19T02:16:43;16.45;;;7.85;;
11596;SDS011;5854;48.072;16.286;2023-05-19T02:19:19;12.98;;;8.23;;
11596;SDS011;5854;48.072;16.286;2023-05-19T02:21:48;11.60;;;7.60;;
11596;SDS011;5854;48.072;16.286;2023-05-19T02:24:15;13.07;;;8.32;;
11596;SDS011;5854;48.072;16.286;2023-05-19T02:26:42;10.73;;;7.93;;
11596;SDS011;5854;48.072;16.286;2023-05-19T02:29:09;9.68;;;7.30;;
11596;SDS011;5854;48.072;16.286;2023-05-19T02:31:36;13.30;;;7.45;;
11596;SDS011;5854;48.072;16.286;2023-05-19T02:34:04;22.42;;;14.48;;
11596;SDS011;5854;48.072;16.286;2023-05-19T02:36:33;11.45;;;7.55;;
11596;SDS011;5854;48.072;16.286;2023-05-19T02:39:01;10.38;;;8.35;;
11596;SDS011;5854;48.072;16.286;2023-05-19T02:41:29;11.35;;;8.48;;
11596;SDS011;5854;48.072;16.286;2023-05-19T02:43:56;13.73;;;8.95;;
11596;SDS011;5854;48.072;16.286;2023-05-19T02:46:24;10.40;;;9.10;;
11596;SDS011;5854;48.072;16.286;2023-05-19T02:48:51;14.05;;;8.98;;
11596;SDS011;5854;48.072;16.286;2023-05-19T02:51:19;13.88;;;9.43;;
11596;SDS011;5854;48.072;16.286;2023-05-19T02:53:46;12.07;;;9.40;;
11596;SDS011;5854;48.072;16.286;2023-05-19T02:56:13;15.35;;;10.20;;
11596;SDS011;5854;48.072;16.286;2023-05-19T02:58:40;15.18;;;10.60;;
11596;SDS011;5854;48.072;16.286;2023-05-19T03:01:08;13.02;;;10.57;;
11596;SDS011;5854;48.072;16.286;2023-05-19T03:03:36;20.02;;;10.93;;
11596;SDS011;5854;48.072;16.286;2023-05-19T03:06:03;15.07;;;9.02;;
11596;SDS011;5854;48.072;16.286;2023-05-19T03:08:34;16.10;;;11.63;;
11596;SDS011;5854;48.072;16.286;2023-05-19T03:11:01;14.77;;;13.35;;
11596;SDS011;5854;48.072;16.286;2023-05-19T03:13:28;13.93;;;11.02;;
11596;SDS011;5854;48.072;16.286;2023-05-19T03:15:55;13.98;;;11.32;;
11596;SDS011;5854;48.072;16.286;2023-05-19T03:18:23;12.48;;;11.18;;
11596;SDS011;5854;48.072;16.286;2023-05-19T03:20:50;15.02;;;10.63;;
11596;SDS011;5854;48.072;16.286;2023-05-19T03:23:18;17.98;;;9.75;;
11596;SDS011;5854;48.072;16.286;2023-05-19T03:25:47;17.83;;;11.82;;
11596;SDS011;5854;48.072;16.286;2023-05-19T03:28:14;17.63;;;12.32;;
11596;SDS011;5854;48.072;16.286;2023-05-19T03:30:42;17.70;;;12.05;;
11596;SDS011;5854;48.072;16.286;2023-05-19T03:33:09;20.15;;;12.25;;
11596;SDS011;5854;48.072;16.286;2023-05-19T03:35:36;13.30;;;10.70;;
11596;SDS011;5854;48.072;16.286;2023-05-19T03:38:03;19.70;;;12.45;;
11596;SDS011;5854;48.072;16.286;2023-05-19T03:40:30;16.75;;;11.75;;
11596;SDS011;5854;48.072;16.286;2023-05-19T03:42:59;15.38;;;10.82;;
11596;SDS011;5854;48.072;16.286;2023-05-19T03:45:26;17.38;;;10.52;;
11596;SDS011;5854;48.072;16.286;2023-05-19T03:47:53;19.00;;;11.90;;
11596;SDS011;5854;48.072;16.286;2023-05-19T03:50:20;17.45;;;11.32;;
11596;SDS011;5854;48.072;16.286;2023-05-19T03:52:47;14.80;;;10.43;;
11596;SDS011;5854;48.072;16.286;2023-05-19T03:55:15;12.55;;;11.13;;
11596;SDS011;5854;48.072;16.286;2023-05-19T03:57:44;12.45;;;11.15;;
11596;SDS011;5854;48.072;16.286;2023-05-19T04:00:13;17.35;;;11.65;;
11596;SDS011;5854;48.072;16.286;2023-05-19T04:02:41;30.00;;;16.67;;
11596;SDS011;5854;48.072;16.286;2023-05-19T04:05:08;19.25;;;14.32;;
11596;SDS011;5854;48.072;16.286;2023-05-19T04:07:36;15.02;;;11.27;;
11596;SDS011;5854;48.072;16.286;2023-05-19T04:10:03;13.13;;;11.85;;
11596;SDS011;5854;48.072;16.286;2023-05-19T04:12:32;15.57;;;12.07;;
11596;SDS011;5854;48.072;16.286;2023-05-19T04:14:59;21.77;;;12.00;;
11596;SDS011;5854;48.072;16.286;2023-05-19T04:17:28;12.05;;;10.95;;
11596;SDS011;5854;48.072;16.286;2023-05-19T04:19:55;16.10;;;10.77;;
11596;SDS011;5854;48.072;16.286;2023-05-19T04:22:22;12.27;;;10.48;;
11596;SDS011;5854;48.072;16.286;2023-05-19T04:24:49;14.77;;;11.52;;
11596;SDS011;5854;48.072;16.286;2023-05-19T04:27:17;15.43;;;11.63;;
11596;SDS011;5854;48.072;16.286;2023-05-19T04:29:44;18.63;;;11.65;;
11596;SDS011;5854;48.072;16.286;2023-05-19T04:32:12;15.40;;;10.98;;
11596;SDS011;5854;48.072;16.286;2023-05-19T04:34:43;11.63;;;10.40;;
11596;SDS011;5854;48.072;16.286;2023-05-19T04:37:10;19.45;;;11.90;;
11596;SDS011;5854;48.072;16.286;2023-05-19T04:39:38;19.48;;;11.13;;
11596;SDS011;5854;48.072;16.286;2023-05-19T04:42:07;15.88;;;12.65;;
11596;SDS011;5854;48.072;16.286;2023-05-19T04:44:35;12.68;;;11.35;;
11596;SDS011;5854;48.072;16.286;2023-05-19T04:47:04;17.55;;;9.90;;
11596;SDS011;5854;48.072;16.286;2023-05-19T04:49:32;14.85;;;10.25;;
11596;SDS011;5854;48.072;16.286;2023-05-19T04:52:05;12.95;;;11.43;;
11596;SDS011;5854;48.072;16.286;2023-05-19T04:54:34;10.70;;;9.57;;
11596;SDS011;5854;48.072;16.286;2023-05-19T04:57:02;11.00;;;9.85;;
11596;SDS011;5854;48.072;16.286;2023-05-19T04:59:30;11.40;;;9.65;;
11596;SDS011;5854;48.072;16.286;2023-05-19T05:01:57;11.18;;;9.35;;
11596;SDS011;5854;48.072;16.286;2023-05-19T05:04:24;12.73;;;9.40;;
11596;SDS011;5854;48.072;16.286;2023-05-19T05:06:52;12.80;;;9.55;;
11596;SDS011;5854;48.072;16.286;2023-05-19T05:09:20;13.10;;;9.52;;
11596;SDS011;5854;48.072;16.286;2023-05-19T05:11:48;11.48;;;9.55;;
11596;SDS011;5854;48.072;16.286;2023-05-19T05:14:16;10.43;;;8.30;;
11596;SDS011;5854;48.072;16.286;2023-05-19T05:16:44;14.82;;;9.18;;
11596;SDS011;5854;48.072;16.286;2023-05-19T05:19:12;11.65;;;9.40;;
11596;SDS011;5854;48.072;16.286;2023-05-19T05:21:40;18.80;;;9.73;;
11596;SDS011;5854;48.072;16.286;2023-05-19T05:24:08;10.02;;;9.05;;
11596;SDS011;5854;48.072;16.286;2023-05-19T05:26:38;9.90;;;8.38;;
11596;SDS011;5854;48.072;16.286;2023-05-19T05:29:07;9.60;;;7.70;;
11596;SDS011;5854;48.072;16.286;2023-05-19T05:31:34;10.93;;;8.55;;
11596;SDS011;5854;48.072;16.286;2023-05-19T05:34:01;12.18;;;8.15;;
11596;SDS011;5854;48.072;16.286;2023-05-19T05:36:29;9.65;;;8.70;;
11596;SDS011;5854;48.072;16.286;2023-05-19T05:38:56;11.43;;;9.02;;
11596;SDS011;5854;48.072;16.286;2023-05-19T05:41:24;9.15;;;8.15;;
11596;SDS011;5854;48.072;16.286;2023-05-19T05:43:52;8.93;;;8.02;;
11596;SDS011;5854;48.072;16.286;2023-05-19T05:46:19;13.13;;;8.95;;
11596;SDS011;5854;48.072;16.286;2023-05-19T05:48:47;8.77;;;7.43;;
11596;SDS011;5854;48.072;16.286;2023-05-19T05:51:14;8.32;;;7.43;;
11596;SDS011;5854;48.072;16.286;2023-05-19T05:53:42;8.30;;;7.07;;
11596;SDS011;5854;48.072;16.286;2023-05-19T05:58:41;11.05;;;7.00;;
11596;SDS011;5854;48.072;16.286;2023-05-19T06:01:14;12.27;;;7.05;;
11596;SDS011;5854;48.072;16.286;2023-05-19T06:03:42;10.70;;;8.45;;
11596;SDS011;5854;48.072;16.286;2023-05-19T06:06:10;9.98;;;7.25;;
11596;SDS011;5854;48.072;16.286;2023-05-19T06:08:39;8.57;;;6.43;;
11596;SDS011;5854;48.072;16.286;2023-05-19T06:11:07;9.88;;;8.30;;
11596;SDS011;5854;48.072;16.286;2023-05-19T06:13:36;9.10;;;7.03;;
11596;SDS011;5854;48.072;16.286;2023-05-19T06:16:08;10.27;;;7.22;;
11596;SDS011;5854;48.072;16.286;2023-05-19T06:26:25;8.52;;;7.47;;
11596;SDS011;5854;48.072;16.286;2023-05-19T06:36:46;11.05;;;7.47;;
11596;SDS011;5854;48.072;16.286;2023-05-19T06:39:25;7.20;;;6.60;;
11596;SDS011;5854;48.072;16.286;2023-05-19T06:52:25;9.63;;;7.05;;
11596;SDS011;5854;48.072;16.286;2023-05-19T06:54:56;11.55;;;6.75;;
11596;SDS011;5854;48.072;16.286;2023-05-19T06:57:23;10.68;;;6.30;;
11596;SDS011;5854;48.072;16.286;2023-05-19T06:59:50;8.18;;;6.72;;
11596;SDS011;5854;48.072;16.286;2023-05-19T07:02:17;8.20;;;6.75;;
11596;SDS011;5854;48.072;16.286;2023-05-19T07:04:45;8.38;;;6.57;;
11596;SDS011;5854;48.072;16.286;2023-05-19T07:09:47;8.43;;;6.90;;
11596;SDS011;5854;48.072;16.286;2023-05-19T07:12:14;10.02;;;7.05;;
11596;SDS011;5854;48.072;16.286;2023-05-19T07:14:45;10.75;;;6.38;;
11596;SDS011;5854;48.072;16.286;2023-05-19T07:19:46;9.65;;;6.70;;
11596;SDS011;5854;48.072;16.286;2023-05-19T07:22:16;8.27;;;7.05;;
11596;SDS011;5854;48.072;16.286;2023-05-19T07:24:44;9.73;;;7.70;;
11596;SDS011;5854;48.072;16.286;2023-05-19T07:32:29;9.70;;;5.88;;
11596;SDS011;5854;48.072;16.286;2023-05-19T07:34:57;6.72;;;5.38;;
11596;SDS011;5854;48.072;16.286;2023-05-19T07:37:25;8.43;;;4.38;;
11596;SDS011;5854;48.072;16.286;2023-05-19T07:39:54;7.22;;;5.97;;
11596;SDS011;5854;48.072;16.286;2023-05-19T07:42:21;10.63;;;6.05;;
11596;SDS011;5854;48.072;16.286;2023-05-19T07:44:48;6.43;;;5.78;;
11596;SDS011;5854;48.072;16.286;2023-05-19T07:47:15;7.35;;;5.82;;
11596;SDS011;5854;48.072;16.286;2023-05-19T07:49:42;6.07;;;5.35;;
11596;SDS011;5854;48.072;16.286;2023-05-19T07:52:09;6.30;;;5.70;;
11596;SDS011;5854;48.072;16.286;2023-05-19T07:54:36;8.27;;;5.93;;
11596;SDS011;5854;48.072;16.286;2023-05-19T07:57:05;7.78;;;6.00;;
11596;SDS011;5854;48.072;16.286;2023-05-19T07:59:32;5.97;;;5.40;;
11596;SDS011;5854;48.072;16.286;2023-05-19T08:01:59;7.57;;;5.40;;
11596;SDS011;5854;48.072;16.286;2023-05-19T08:04:26;6.03;;;5.43;;
11596;SDS011;5854;48.072;16.286;2023-05-19T08:06:53;5.60;;;5.13;;
11596;SDS011;5854;48.072;16.286;2023-05-19T08:09:20;6.68;;;5.90;;
11596;SDS011;5854;48.072;16.286;2023-05-19T08:11:47;9.13;;;4.93;;
11596;SDS011;5854;48.072;16.286;2023-05-19T08:14:16;5.70;;;5.20;;
11596;SDS011;5854;48.072;16.286;2023-05-19T08:16:44;6.72;;;5.03;;
11596;SDS011;5854;48.072;16.286;2023-05-19T08:19:11;5.72;;;4.63;;
11596;SDS011;5854;48.072;16.286;2023-05-19T08:21:38;7.63;;;5.03;;
11596;SDS011;5854;48.072;16.286;2023-05-19T08:24:06;6.55;;;5.55;;
11596;SDS011;5854;48.072;16.286;2023-05-19T08:26:33;10.63;;;5.30;;
11596;SDS011;5854;48.072;16.286;2023-05-19T08:29:00;7.22;;;4.88;;
11596;SDS011;5854;48.072;16.286;2023-05-19T08:31:29;12.95;;;5.25;;
11596;SDS011;5854;48.072;16.286;2023-05-19T08:33:56;5.93;;;4.47;;
11596;SDS011;5854;48.072;16.286;2023-05-19T08:36:23;5.25;;;4.75;;
11596;SDS011;5854;48.072;16.286;2023-05-19T08:38:51;5.15;;;4.65;;
11596;SDS011;5854;48.072;16.286;2023-05-19T08:41:18;6.47;;;4.95;;
11596;SDS011;5854;48.072;16.286;2023-05-19T08:43:47;4.90;;;4.22;;
11596;SDS011;5854;48.072;16.286;2023-05-19T08:46:14;6.60;;;5.72;;
11596;SDS011;5854;48.072;16.286;2023-05-19T08:48:43;8.48;;;5.15;;
11596;SDS011;5854;48.072;16.286;2023-05-19T08:51:16;7.60;;;5.57;;
11596;SDS011;5854;48.072;16.286;2023-05-19T08:53:53;5.68;;;5.07;;
11596;SDS011;5854;48.072;16.286;2023-05-19T08:56:27;7.57;;;5.20;;
11596;SDS011;5854;48.072;16.286;2023-05-19T08:58:55;6.70;;;5.07;;
11596;SDS011;5854;48.072;16.286;2023-05-19T09:01:24;8.27;;;6.15;;
11596;SDS011;5854;48.072;16.286;2023-05-19T09:03:54;11.98;;;6.30;;
11596;SDS011;5854;48.072;16.286;2023-05-19T09:06:21;14.00;;;7.00;;
11596;SDS011;5854;48.072;16.286;2023-05-19T09:08:49;7.05;;;6.38;;
11596;SDS011;5854;48.072;16.286;2023-05-19T09:11:16;10.48;;;5.82;;
11596;SDS011;5854;48.072;16.286;2023-05-19T09:13:43;7.57;;;5.88;;
11596;SDS011;5854;48.072;16.286;2023-05-19T09:16:11;6.15;;;5.55;;
11596;SDS011;5854;48.072;16.286;2023-05-19T09:18:38;6.43;;;5.82;;
11596;SDS011;5854;48.072;16.286;2023-05-19T09:21:07;5.88;;;5.35;;
11596;SDS011;5854;48.072;16.286;2023-05-19T09:23:35;6.32;;;5.63;;
11596;SDS011;5854;48.072;16.286;2023-05-19T09:26:03;7.88;;;5.93;;
11596;SDS011;5854;48.072;16.286;2023-05-19T09:28:33;6.10;;;5.45;;
11596;SDS011;5854;48.072;16.286;2023-05-19T09:31:02;5.82;;;5.32;;
11596;SDS011;5854;48.072;16.286;2023-05-19T09:33:32;6.45;;;5.47;;
11596;SDS011;5854;48.072;16.286;2023-05-19T09:36:00;6.65;;;5.82;;
11596;SDS011;5854;48.072;16.286;2023-05-19T09:38:31;6.97;;;5.65;;
11596;SDS011;5854;48.072;16.286;2023-05-19T09:40:58;6.30;;;5.70;;
11596;SDS011;5854;48.072;16.286;2023-05-19T09:43:26;7.47;;;6.28;;
11596;SDS011;5854;48.072;16.286;2023-05-19T09:45:54;7.53;;;4.88;;
11596;SDS011;5854;48.072;16.286;2023-05-19T09:48:25;6.88;;;5.35;;
11596;SDS011;5854;48.072;16.286;2023-05-19T09:50:54;7.55;;;5.28;;
11596;SDS011;5854;48.072;16.286;2023-05-19T09:53:21;7.72;;;5.93;;
11596;SDS011;5854;48.072;16.286;2023-05-19T09:55:54;6.82;;;5.78;;
11596;SDS011;5854;48.072;16.286;2023-05-19T09:58:22;6.80;;;5.18;;
11596;SDS011;5854;48.072;16.286;2023-05-19T10:00:50;5.30;;;4.90;;
11596;SDS011;5854;48.072;16.286;2023-05-19T10:03:19;5.00;;;4.28;;
11596;SDS011;5854;48.072;16.286;2023-05-19T10:05:48;3.90;;;3.53;;
11596;SDS011;5854;48.072;16.286;2023-05-19T10:08:16;5.00;;;4.35;;
11596;SDS011;5854;48.072;16.286;2023-05-19T10:10:44;7.88;;;4.32;;
11596;SDS011;5854;48.072;16.286;2023-05-19T10:13:13;5.95;;;4.50;;
11596;SDS011;5854;48.072;16.286;2023-05-19T10:15:42;13.55;;;6.05;;
11596;SDS011;5854;48.072;16.286;2023-05-19T10:18:09;8.75;;;5.40;;
11596;SDS011;5854;48.072;16.286;2023-05-19T10:20:37;6.97;;;6.28;;
11596;SDS011;5854;48.072;16.286;2023-05-19T10:23:06;6.05;;;5.45;;
11596;SDS011;5854;48.072;16.286;2023-05-19T10:25:33;5.60;;;4.95;;
11596;SDS011;5854;48.072;16.286;2023-05-19T10:28:04;9.65;;;4.82;;
11596;SDS011;5854;48.072;16.286;2023-05-19T10:30:37;4.82;;;4.43;;
11596;SDS011;5854;48.072;16.286;2023-05-19T10:33:06;7.63;;;4.82;;
11596;SDS011;5854;48.072;16.286;2023-05-19T10:38:39;4.30;;;3.90;;
11596;SDS011;5854;48.072;16.286;2023-05-19T10:41:15;5.80;;;4.22;;
11596;SDS011;5854;48.072;16.286;2023-05-19T10:43:52;5.15;;;4.65;;
11596;SDS011;5854;48.072;16.286;2023-05-19T10:46:29;4.57;;;4.13;;
11596;SDS011;5854;48.072;16.286;2023-05-19T10:48:56;5.70;;;4.70;;
11596;SDS011;5854;48.072;16.286;2023-05-19T10:51:27;6.78;;;4.68;;
11596;SDS011;5854;48.072;16.286;2023-05-19T10:53:56;4.55;;;4.15;;
11596;SDS011;5854;48.072;16.286;2023-05-19T10:56:27;5.25;;;4.75;;
11596;SDS011;5854;48.072;16.286;2023-05-19T10:58:57;5.55;;;4.55;;
11596;SDS011;5854;48.072;16.286;2023-05-19T11:01:30;5.13;;;4.63;;
11596;SDS011;5854;48.072;16.286;2023-05-19T11:04:03;5.43;;;4.90;;
11596;SDS011;5854;48.072;16.286;2023-05-19T11:06:33;8.02;;;5.32;;
11596;SDS011;5854;48.072;16.286;2023-05-19T11:09:08;8.85;;;5.22;;
11596;SDS011;5854;48.072;16.286;2023-05-19T11:11:44;5.88;;;5.07;;
11596;SDS011;5854;48.072;16.286;2023-05-19T11:14:13;6.68;;;5.00;;
11596;SDS011;5854;48.072;16.286;2023-05-19T11:16:46;6.28;;;5.57;;
11596;SDS011;5854;48.072;16.286;2023-05-19T11:19:18;5.60;;;5.10;;
11596;SDS011;5854;48.072;16.286;2023-05-19T11:21:51;5.82;;;5.32;;
11596;SDS011;5854;48.072;16.286;2023-05-19T11:24:32;6.10;;;5.60;;
11596;SDS011;5854;48.072;16.286;2023-05-19T11:29:44;14.15;;;5.18;;
11596;SDS011;5854;48.072;16.286;2023-05-19T11:32:14;4.35;;;4.03;;
11596;SDS011;5854;48.072;16.286;2023-05-19T11:34:42;9.93;;;4.88;;
11596;SDS011;5854;48.072;16.286;2023-05-19T11:37:10;4.40;;;4.00;;
11596;SDS011;5854;48.072;16.286;2023-05-19T11:39:38;5.32;;;4.82;;
11596;SDS011;5854;48.072;16.286;2023-05-19T11:42:05;5.07;;;4.10;;
11596;SDS011;5854;48.072;16.286;2023-05-19T11:44:34;4.53;;;3.13;;
11596;SDS011;5854;48.072;16.286;2023-05-19T11:47:02;7.13;;;5.13;;
11596;SDS011;5854;48.072;16.286;2023-05-19T11:49:31;4.18;;;3.83;;
11596;SDS011;5854;48.072;16.286;2023-05-19T11:51:59;5.30;;;3.92;;
11596;SDS011;5854;48.072;16.286;2023-05-19T11:54:30;6.20;;;3.63;;
11596;SDS011;5854;48.072;16.286;2023-05-19T11:57:00;3.35;;;2.90;;
11596;SDS011;5854;48.072;16.286;2023-05-19T11:59:28;3.47;;;2.85;;
11596;SDS011;5854;48.072;16.286;2023-05-19T12:01:59;4.05;;;3.00;;
11596;SDS011;5854;48.072;16.286;2023-05-19T12:04:29;3.25;;;2.80;;
11596;SDS011;5854;48.072;16.286;2023-05-19T12:06:58;8.60;;;2.72;;
11596;SDS011;5854;48.072;16.286;2023-05-19T12:09:25;4.70;;;3.03;;
11596;SDS011;5854;48.072;16.286;2023-05-19T12:11:54;3.10;;;2.90;;
11596;SDS011;5854;48.072;16.286;2023-05-19T12:14:21;3.28;;;2.85;;
11596;SDS011;5854;48.072;16.286;2023-05-19T12:16:48;6.05;;;2.97;;
11596;SDS011;5854;48.072;16.286;2023-05-19T12:19:15;2.88;;;2.67;;
11596;SDS011;5854;48.072;16.286;2023-05-19T12:21:42;11.75;;;2.65;;
11596;SDS011;5854;48.072;16.286;2023-05-19T12:24:11;5.07;;;3.47;;
11596;SDS011;5854;48.072;16.286;2023-05-19T12:26:39;4.35;;;2.40;;
11596;SDS011;5854;48.072;16.286;2023-05-19T12:29:06;3.83;;;2.35;;
11596;SDS011;5854;48.072;16.286;2023-05-19T12:31:33;5.85;;;2.25;;
11596;SDS011;5854;48.072;16.286;2023-05-19T12:34:01;4.35;;;2.47;;
11596;SDS011;5854;48.072;16.286;2023-05-19T12:36:30;3.45;;;2.28;;
11596;SDS011;5854;48.072;16.286;2023-05-19T12:38:57;2.72;;;2.17;;
11596;SDS011;5854;48.072;16.286;2023-05-19T12:41:26;2.47;;;2.10;;
11596;SDS011;5854;48.072;16.286;2023-05-19T12:43:54;2.15;;;1.63;;
11596;SDS011;5854;48.072;16.286;2023-05-19T12:46:21;2.58;;;2.10;;
11596;SDS011;5854;48.072;16.286;2023-05-19T12:48:49;3.42;;;2.03;;
11596;SDS011;5854;48.072;16.286;2023-05-19T12:51:16;2.85;;;1.80;;
11596;SDS011;5854;48.072;16.286;2023-05-19T12:53:44;3.45;;;1.70;;
11596;SDS011;5854;48.072;16.286;2023-05-19T12:56:11;4.15;;;1.90;;
11596;SDS011;5854;48.072;16.286;2023-05-19T12:58:41;2.38;;;1.80;;
11596;SDS011;5854;48.072;16.286;2023-05-19T13:01:14;2.08;;;1.88;;
11596;SDS011;5854;48.072;16.286;2023-05-19T13:03:42;1.90;;;1.73;;
11596;SDS011;5854;48.072;16.286;2023-05-19T13:06:10;2.60;;;1.60;;
11596;SDS011;5854;48.072;16.286;2023-05-19T13:08:37;2.55;;;1.60;;
11596;SDS011;5854;48.072;16.286;2023-05-19T13:11:04;2.60;;;1.50;;
11596;SDS011;5854;48.072;16.286;2023-05-19T13:13:32;2.67;;;1.73;;
11596;SDS011;5854;48.072;16.286;2023-05-19T13:16:00;2.33;;;2.03;;
11596;SDS011;5854;48.072;16.286;2023-05-19T13:18:27;1.88;;;1.67;;
11596;SDS011;5854;48.072;16.286;2023-05-19T13:20:56;5.03;;;1.90;;
11596;SDS011;5854;48.072;16.286;2023-05-19T13:23:23;4.68;;;1.52;;
11596;SDS011;5854;48.072;16.286;2023-05-19T13:25:51;2.13;;;1.85;;
11596;SDS011;5854;48.072;16.286;2023-05-19T13:28:18;2.90;;;1.75;;
11596;SDS011;5854;48.072;16.286;2023-05-19T13:30:45;2.08;;;1.55;;
11596;SDS011;5854;48.072;16.286;2023-05-19T13:33:13;1.95;;;1.65;;
11596;SDS011;5854;48.072;16.286;2023-05-19T13:35:40;2.22;;;1.33;;
11596;SDS011;5854;48.072;16.286;2023-05-19T13:38:08;10.77;;;1.90;;
11596;SDS011;5854;48.072;16.286;2023-05-19T13:40:35;1.20;;;1.10;;
11596;SDS011;5854;48.072;16.286;2023-05-19T13:43:03;3.90;;;1.50;;
11596;SDS011;5854;48.072;16.286;2023-05-19T13:45:31;2.08;;;1.27;;
11596;SDS011;5854;48.072;16.286;2023-05-19T13:47:58;5.25;;;1.30;;
11596;SDS011;5854;48.072;16.286;2023-05-19T13:50:26;1.17;;;1.08;;
11596;SDS011;5854;48.072;16.286;2023-05-19T13:52:54;3.00;;;1.23;;
11596;SDS011;5854;48.072;16.286;2023-05-19T13:55:21;1.55;;;0.85;;
11596;SDS011;5854;48.072;16.286;2023-05-19T13:57:50;1.00;;;0.90;;
11596;SDS011;5854;48.072;16.286;2023-05-19T14:00:17;1.77;;;1.02;;
11596;SDS011;5854;48.072;16.286;2023-05-19T14:02:45;1.77;;;1.00;;
11596;SDS011;5854;48.072;16.286;2023-05-19T14:05:12;1.42;;;1.15;;
11596;SDS011;5854;48.072;16.286;2023-05-19T14:07:40;1.30;;;0.90;;
11596;SDS011;5854;48.072;16.286;2023-05-19T14:10:08;4.20;;;1.20;;
11596;SDS011;5854;48.072;16.286;2023-05-19T14:12:36;3.45;;;1.02;;
11596;SDS011;5854;48.072;16.286;2023-05-19T14:15:04;2.28;;;2.08;;
11596;SDS011;5854;48.072;16.286;2023-05-19T14:17:32;4.55;;;1.00;;
11596;SDS011;5854;48.072;16.286;2023-05-19T14:19:59;1.33;;;0.88;;
11596;SDS011;5854;48.072;16.286;2023-05-19T14:22:26;1.70;;;1.13;;
11596;SDS011;5854;48.072;16.286;2023-05-19T14:24:55;1.15;;;0.98;;
11596;SDS011;5854;48.072;16.286;2023-05-19T14:27:22;1.20;;;1.10;;
11596;SDS011;5854;48.072;16.286;2023-05-19T14:29:49;3.47;;;0.90;;
11596;SDS011;5854;48.072;16.286;2023-05-19T14:32:16;3.75;;;1.10;;
11596;SDS011;5854;48.072;16.286;2023-05-19T14:34:43;1.95;;;1.20;;
11596;SDS011;5854;48.072;16.286;2023-05-19T14:37:10;1.88;;;1.35;;
11596;SDS011;5854;48.072;16.286;2023-05-19T14:39:38;3.55;;;1.10;;
11596;SDS011;5854;48.072;16.286;2023-05-19T14:42:06;1.30;;;0.90;;
11596;SDS011;5854;48.072;16.286;2023-05-19T14:44:33;1.13;;;1.00;;
11596;SDS011;5854;48.072;16.286;2023-05-19T14:47:01;1.20;;;0.95;;
11596;SDS011;5854;48.072;16.286;2023-05-19T14:49:31;2.28;;;1.30;;
11596;SDS011;5854;48.072;16.286;2023-05-19T14:51:58;3.50;;;1.40;;
11596;SDS011;5854;48.072;16.286;2023-05-19T14:54:25;1.33;;;1.00;;
11596;SDS011;5854;48.072;16.286;2023-05-19T14:56:52;0.82;;;0.82;;
11596;SDS011;5854;48.072;16.286;2023-05-19T14:59:20;1.58;;;0.88;;
11596;SDS011;5854;48.072;16.286;2023-05-19T15:01:49;1.15;;;1.05;;
11596;SDS011;5854;48.072;16.286;2023-05-19T15:04:16;3.63;;;0.98;;
11596;SDS011;5854;48.072;16.286;2023-05-19T15:06:43;1.98;;;1.77;;
11596;SDS011;5854;48.072;16.286;2023-05-19T15:09:10;1.90;;;1.58;;
11596;SDS011;5854;48.072;16.286;2023-05-19T15:11:38;2.28;;;1.50;;
11596;SDS011;5854;48.072;16.286;2023-05-19T15:14:05;3.65;;;1.30;;
11596;SDS011;5854;48.072;16.286;2023-05-19T15:16:34;7.45;;;1.88;;
11596;SDS011;5854;48.072;16.286;2023-05-19T15:19:01;1.90;;;1.55;;
11596;SDS011;5854;48.072;16.286;2023-05-19T15:21:28;3.67;;;1.55;;
11596;SDS011;5854;48.072;16.286;2023-05-19T15:23:55;2.22;;;2.03;;
11596;SDS011;5854;48.072;16.286;2023-05-19T15:26:22;2.33;;;2.08;;
11596;SDS011;5854;48.072;16.286;2023-05-19T15:28:50;2.92;;;2.50;;
11596;SDS011;5854;48.072;16.286;2023-05-19T15:31:17;2.72;;;2.35;;
11596;SDS011;5854;48.072;16.286;2023-05-19T15:33:47;2.63;;;1.98;;
11596;SDS011;5854;48.072;16.286;2023-05-19T15:36:14;2.58;;;2.10;;
11596;SDS011;5854;48.072;16.286;2023-05-19T15:38:41;2.10;;;2.00;;